Time;durP1;ratioP1;P1;durP2;ratioP2;P2;SDS_P1;SDS_P2;PMS_P1;PMS_P2;Temp;Humidity;BMP_temperature;BMP_pressure;BME280_temperature;BME280_humidity;BME280_pressure;Samples;Min_cycle;Max_cycle;Signal;HPM_P1;HPM_P2
2020/12/14 00:01:47;;;;;;;21.50;13.10;;;;;;;;;;5094835;28;20042;-81
2020/12/14 00:04:13;;;;;;;24.20;14.73;;;;;;;;;;5093575;28;20028;-80
2020/12/14 00:06:42;;;;;;;20.83;12.45;;;;;;;;;;5095192;28;20059;-80
2020/12/14 00:09:10;;;;;;;21.45;13.00;;;;;;;;;;5095626;28;20020;-79
2020/12/14 00:11:39;;;;;;;20.35;13.38;;;;;;;;;;5075283;28;20025;-78
2020/12/14 00:14:08;;;;;;;24.00;12.70;;;;;;;;;;5074955;28;20082;-80
2020/12/14 00:16:34;;;;;;;25.02;13.70;;;;;;;;;;5074299;28;20020;-81
2020/12/14 00:19:00;;;;;;;19.25;12.27;;;;;;;;;;5074269;28;20025;-79
2020/12/14 00:21:28;;;;;;;20.90;12.35;;;;;;;;;;5073978;28;20095;-80
2020/12/14 00:23:57;;;;;;;18.40;10.43;;;;;;;;;;5074147;28;20099;-79
2020/12/14 00:26:25;;;;;;;17.40;10.90;;;;;;;;;;5073945;28;20048;-81
2020/12/14 00:28:54;;;;;;;20.27;11.73;;;;;;;;;;5074159;28;20149;-79
2020/12/14 00:31:20;;;;;;;17.38;10.75;;;;;;;;;;5074098;28;20430;-81
2020/12/14 00:33:47;;;;;;;17.65;11.63;;;;;;;;;;5073855;28;20177;-79
2020/12/14 00:36:13;;;;;;;17.33;11.73;;;;;;;;;;5073634;28;20044;-81
2020/12/14 00:38:39;;;;;;;17.33;11.18;;;;;;;;;;5074116;28;20108;-81
2020/12/14 00:41:08;;;;;;;16.10;10.80;;;;;;;;;;5073901;28;20028;-81
2020/12/14 00:43:37;;;;;;;17.13;11.00;;;;;;;;;;5073882;28;20025;-79
2020/12/14 00:46:07;;;;;;;18.08;10.20;;;;;;;;;;5073770;28;20039;-80
2020/12/14 00:48:35;;;;;;;16.13;9.60;;;;;;;;;;5073837;28;20020;-80
2020/12/14 00:51:01;;;;;;;20.70;10.40;;;;;;;;;;5073929;28;20028;-80
2020/12/14 00:53:27;;;;;;;15.63;9.40;;;;;;;;;;5073615;28;20036;-81
2020/12/14 00:55:53;;;;;;;13.20;8.60;;;;;;;;;;5073612;28;20491;-80
2020/12/14 00:58:19;;;;;;;14.57;9.00;;;;;;;;;;5073819;28;20024;-80
2020/12/14 01:00:45;;;;;;;16.83;10.10;;;;;;;;;;5073447;28;20028;-77
2020/12/14 01:03:11;;;;;;;16.58;10.70;;;;;;;;;;5073398;28;20017;-81
2020/12/14 01:05:37;;;;;;;17.05;10.55;;;;;;;;;;5073404;28;20032;-81
2020/12/14 01:08:03;;;;;;;15.32;9.85;;;;;;;;;;5072927;28;20016;-79
2020/12/14 01:10:32;;;;;;;14.10;9.40;;;;;;;;;;5073136;28;20048;-81
2020/12/14 01:13:01;;;;;;;15.13;8.75;;;;;;;;;;5073163;28;20024;-81
2020/12/14 01:15:29;;;;;;;12.40;8.60;;;;;;;;;;5072820;28;20472;-81
2020/12/14 01:17:58;;;;;;;14.30;9.40;;;;;;;;;;5073041;28;20093;-81
2020/12/14 01:20:24;;;;;;;17.00;9.80;;;;;;;;;;5072986;28;20159;-81
2020/12/14 01:22:50;;;;;;;14.15;9.80;;;;;;;;;;5072977;28;20033;-79
2020/12/14 01:25:16;;;;;;;15.43;9.73;;;;;;;;;;5072852;28;20384;-81
2020/12/14 01:27:42;;;;;;;14.70;9.20;;;;;;;;;;5072729;28;20487;-81
2020/12/14 01:30:08;;;;;;;15.57;8.95;;;;;;;;;;5073088;28;20461;-81
2020/12/14 01:32:34;;;;;;;14.43;8.95;;;;;;;;;;5072716;28;20461;-79
2020/12/14 01:35:00;;;;;;;13.45;8.63;;;;;;;;;;5072846;28;20037;-79
2020/12/14 01:37:26;;;;;;;16.50;9.43;;;;;;;;;;5072603;28;20017;-80
2020/12/14 01:39:52;;;;;;;14.32;8.43;;;;;;;;;;5072728;28;20028;-80
2020/12/14 01:42:22;;;;;;;12.45;7.93;;;;;;;;;;5072696;28;20021;-81
2020/12/14 01:44:48;;;;;;;13.77;8.27;;;;;;;;;;5072775;28;20028;-81
2020/12/14 01:47:15;;;;;;;13.40;8.88;;;;;;;;;;5072596;28;20029;-81
2020/12/14 01:49:41;;;;;;;13.18;8.57;;;;;;;;;;5072597;28;20109;-79
2020/12/14 01:52:08;;;;;;;11.77;7.38;;;;;;;;;;5072592;28;20460;-79
2020/12/14 01:54:37;;;;;;;12.27;8.05;;;;;;;;;;5072519;28;20036;-79
2020/12/14 01:57:05;;;;;;;11.52;7.80;;;;;;;;;;5072506;28;20020;-80
2020/12/14 01:59:34;;;;;;;13.20;8.40;;;;;;;;;;5072427;28;20029;-80
2020/12/14 02:02:02;;;;;;;11.65;7.60;;;;;;;;;;5071914;28;20039;-79
2020/12/14 02:04:31;;;;;;;10.93;7.75;;;;;;;;;;5072424;28;20050;-81
2020/12/14 02:06:57;;;;;;;10.20;7.30;;;;;;;;;;5072371;28;20033;-80
2020/12/14 02:09:23;;;;;;;10.90;7.93;;;;;;;;;;5072166;28;20023;-80
2020/12/14 02:11:49;;;;;;;13.35;8.00;;;;;;;;;;5071998;28;20024;-81
2020/12/14 02:14:15;;;;;;;11.15;7.63;;;;;;;;;;5072282;28;20037;-79
2020/12/14 02:16:41;;;;;;;11.98;8.30;;;;;;;;;;5072336;28;20016;-74
2020/12/14 02:19:07;;;;;;;14.30;8.85;;;;;;;;;;5072417;28;20025;-81
2020/12/14 02:21:33;;;;;;;16.70;9.55;;;;;;;;;;5072177;28;20021;-81
2020/12/14 02:23:59;;;;;;;15.52;9.75;;;;;;;;;;5071806;28;20016;-79
2020/12/14 02:26:25;;;;;;;15.00;9.00;;;;;;;;;;5071344;28;20048;-80
2020/12/14 02:28:51;;;;;;;10.93;7.68;;;;;;;;;;5072045;28;20056;-80
2020/12/14 02:31:17;;;;;;;11.80;7.38;;;;;;;;;;5072260;28;20020;-79
2020/12/14 02:33:43;;;;;;;11.68;7.40;;;;;;;;;;5071962;28;20028;-79
2020/12/14 02:36:09;;;;;;;10.70;7.57;;;;;;;;;;5072357;28;20021;-80
2020/12/14 02:38:35;;;;;;;9.80;6.15;;;;;;;;;;5072000;28;20017;-81
2020/12/14 02:41:01;;;;;;;11.63;6.72;;;;;;;;;;5072072;28;20025;-79
2020/12/14 02:43:27;;;;;;;9.85;6.72;;;;;;;;;;5072110;28;20021;-80
2020/12/14 02:45:53;;;;;;;11.90;6.97;;;;;;;;;;5071972;28;20130;-80
2020/12/14 02:48:19;;;;;;;9.55;6.78;;;;;;;;;;5072148;28;20024;-81
2020/12/14 02:50:45;;;;;;;10.45;6.75;;;;;;;;;;5071724;28;20062;-81
2020/12/14 02:53:11;;;;;;;10.50;6.28;;;;;;;;;;5071784;28;20025;-80
2020/12/14 02:55:38;;;;;;;12.10;6.65;;;;;;;;;;5072110;28;20016;-80
2020/12/14 02:58:04;;;;;;;8.93;6.20;;;;;;;;;;5071911;28;20021;-79
2020/12/14 03:00:30;;;;;;;9.73;6.63;;;;;;;;;;5071998;28;20423;-80
2020/12/14 03:02:56;;;;;;;10.75;6.25;;;;;;;;;;5072100;28;20425;-80
2020/12/14 03:05:22;;;;;;;9.55;6.63;;;;;;;;;;5071771;28;20091;-81
2020/12/14 03:07:48;;;;;;;8.52;6.47;;;;;;;;;;5071718;28;20031;-79
2020/12/14 03:10:16;;;;;;;7.85;5.43;;;;;;;;;;5053834;28;20444;-77
2020/12/14 03:12:45;;;;;;;8.23;5.65;;;;;;;;;;5071474;28;20072;-80
2020/12/14 03:15:14;;;;;;;6.97;5.40;;;;;;;;;;5071612;28;20029;-78
2020/12/14 03:17:42;;;;;;;9.00;5.38;;;;;;;;;;5071758;28;20098;-79
2020/12/14 03:20:08;;;;;;;9.55;5.40;;;;;;;;;;5071572;28;20077;-81
2020/12/14 03:22:34;;;;;;;7.70;5.25;;;;;;;;;;5071687;28;20472;-81
2020/12/14 03:25:00;;;;;;;8.38;5.68;;;;;;;;;;5071397;28;20029;-81
2020/12/14 03:27:26;;;;;;;7.57;5.30;;;;;;;;;;5071667;28;20064;-81
2020/12/14 03:29:52;;;;;;;9.18;5.40;;;;;;;;;;5071605;28;20025;-82
2020/12/14 03:32:18;;;;;;;8.50;5.85;;;;;;;;;;5071665;28;20380;-80
2020/12/14 03:34:44;;;;;;;9.82;5.93;;;;;;;;;;5067647;28;20389;-79
2020/12/14 03:37:10;;;;;;;8.32;5.70;;;;;;;;;;5051369;28;20461;-80
2020/12/14 03:39:36;;;;;;;11.10;6.82;;;;;;;;;;5054578;28;20465;-77
2020/12/14 03:42:02;;;;;;;10.20;6.45;;;;;;;;;;5054865;28;20499;-80
2020/12/14 03:44:28;;;;;;;9.13;6.88;;;;;;;;;;5055008;28;20021;-80
2020/12/14 03:46:54;;;;;;;10.38;6.50;;;;;;;;;;5054853;28;20021;-79
2020/12/14 03:49:20;;;;;;;11.57;7.15;;;;;;;;;;5054911;28;20530;-80
2020/12/14 03:51:46;;;;;;;11.35;6.80;;;;;;;;;;5054590;28;20378;-80
2020/12/14 03:54:13;;;;;;;11.80;7.50;;;;;;;;;;5054531;28;20381;-80
2020/12/14 03:56:39;;;;;;;9.85;6.93;;;;;;;;;;5074941;28;20029;-80
2020/12/14 03:59:05;;;;;;;12.20;6.82;;;;;;;;;;5074244;28;20025;-80
2020/12/14 04:01:31;;;;;;;11.77;7.05;;;;;;;;;;5065311;28;20021;-81
2020/12/14 04:03:57;;;;;;;10.45;6.68;;;;;;;;;;5054410;28;20028;-81
2020/12/14 04:06:24;;;;;;;10.80;6.28;;;;;;;;;;5054715;28;20028;-80
2020/12/14 04:08:51;;;;;;;10.40;7.10;;;;;;;;;;5054390;28;20033;-81
2020/12/14 04:11:17;;;;;;;11.13;6.68;;;;;;;;;;5072327;28;20491;-82
2020/12/14 04:13:43;;;;;;;10.50;6.38;;;;;;;;;;5074377;28;20127;-82
2020/12/14 04:16:10;;;;;;;12.13;6.22;;;;;;;;;;5055716;28;20021;-77
2020/12/14 04:18:36;;;;;;;12.18;7.05;;;;;;;;;;5074065;28;20016;-81
2020/12/14 04:21:02;;;;;;;10.32;6.72;;;;;;;;;;5075495;28;20028;-82
2020/12/14 04:23:28;;;;;;;11.18;6.20;;;;;;;;;;5074481;28;20068;-83
2020/12/14 04:25:55;;;;;;;12.00;7.10;;;;;;;;;;5055946;28;20041;-83
2020/12/14 04:28:21;;;;;;;10.63;7.03;;;;;;;;;;5074274;28;20032;-85
2020/12/14 04:30:47;;;;;;;9.93;6.25;;;;;;;;;;5074076;28;20021;-82
2020/12/14 04:33:13;;;;;;;9.82;6.45;;;;;;;;;;5073965;28;20032;-85
2020/12/14 04:35:39;;;;;;;13.48;6.53;;;;;;;;;;5074096;28;20099;-84
2020/12/14 04:38:05;;;;;;;12.13;7.32;;;;;;;;;;5073487;28;20024;-85
2020/12/14 04:40:31;;;;;;;10.80;7.28;;;;;;;;;;5073565;28;20095;-85
2020/12/14 04:42:58;;;;;;;11.10;6.78;;;;;;;;;;5073496;28;20082;-86
2020/12/14 04:45:25;;;;;;;10.30;6.25;;;;;;;;;;5073546;28;20021;-82
2020/12/14 04:47:57;;;;;;;9.50;6.32;;;;;;;;;;5073712;28;20082;-85
2020/12/14 04:50:24;;;;;;;11.52;6.63;;;;;;;;;;5072882;28;20100;-84
2020/12/14 04:52:51;;;;;;;10.50;6.30;;;;;;;;;;5076773;28;20028;-82
2020/12/14 04:55:21;;;;;;;14.77;7.40;;;;;;;;;;5073328;28;20031;-86
2020/12/14 04:57:47;;;;;;;11.93;7.55;;;;;;;;;;5072423;28;20023;-86
2020/12/14 05:00:13;;;;;;;14.48;9.07;;;;;;;;;;5073477;28;20031;-86
2020/12/14 05:02:39;;;;;;;14.13;8.30;;;;;;;;;;5073528;28;20024;-84
2020/12/14 05:05:05;;;;;;;14.10;8.48;;;;;;;;;;5073450;28;20027;-77
2020/12/14 05:07:39;;;;;;;15.85;9.80;;;;;;;;;;5073202;28;20059;-84
2020/12/14 05:10:05;;;;;;;18.25;10.65;;;;;;;;;;5073504;28;20024;-85
2020/12/14 05:12:31;;;;;;;17.63;9.77;;;;;;;;;;5072932;28;20035;-84
2020/12/14 05:15:00;;;;;;;15.73;9.00;;;;;;;;;;5072876;28;20090;-80
2020/12/14 05:17:26;;;;;;;15.52;9.65;;;;;;;;;;5073293;28;20044;-90
2020/12/14 05:19:53;;;;;;;14.05;8.82;;;;;;;;;;5073156;28;20396;-87
2020/12/14 05:22:19;;;;;;;13.93;9.25;;;;;;;;;;5073308;28;20086;-83
2020/12/14 05:24:49;;;;;;;15.38;9.80;;;;;;;;;;5073090;28;20024;-82
2020/12/14 05:27:29;;;;;;;15.48;8.93;;;;;;;;;;5072585;28;20504;-83
2020/12/14 05:29:55;;;;;;;13.38;8.40;;;;;;;;;;5073241;28;20029;-88
2020/12/14 05:32:21;;;;;;;13.57;8.05;;;;;;;;;;5073307;28;20024;-87
2020/12/14 05:34:47;;;;;;;12.07;8.07;;;;;;;;;;5073355;28;20060;-78
2020/12/14 05:37:14;;;;;;;14.57;8.35;;;;;;;;;;5073412;28;20023;-84
2020/12/14 05:39:41;;;;;;;13.40;8.77;;;;;;;;;;5073317;28;20059;-84
2020/12/14 05:42:08;;;;;;;14.82;8.70;;;;;;;;;;5073194;28;20025;-87
2020/12/14 05:44:34;;;;;;;14.15;9.05;;;;;;;;;;5073073;28;20027;-81
2020/12/14 05:47:01;;;;;;;14.32;8.63;;;;;;;;;;5072899;28;20028;-86
2020/12/14 05:49:27;;;;;;;16.00;8.63;;;;;;;;;;5072825;28;20025;-86
2020/12/14 05:51:59;;;;;;;15.00;9.15;;;;;;;;;;5072858;28;20074;-83
2020/12/14 05:54:34;;;;;;;15.98;9.57;;;;;;;;;;5073113;28;20435;-86
2020/12/14 05:57:01;;;;;;;15.70;8.30;;;;;;;;;;5072756;28;20025;-84
2020/12/14 05:59:28;;;;;;;14.75;9.13;;;;;;;;;;5072729;28;20025;-86
2020/12/14 06:01:54;;;;;;;24.30;14.30;;;;;;;;;;5071614;28;20017;-85
2020/12/14 06:04:21;;;;;;;28.60;14.90;;;;;;;;;;5072586;28;20034;-85
2020/12/14 06:06:47;;;;;;;26.60;15.23;;;;;;;;;;5072500;28;20020;-84
2020/12/14 06:09:21;;;;;;;27.58;15.10;;;;;;;;;;5072325;28;20091;-85
2020/12/14 06:11:51;;;;;;;22.40;13.25;;;;;;;;;;5072572;28;20073;-83
2020/12/14 06:14:19;;;;;;;21.23;12.10;;;;;;;;;;5072534;28;20392;-83
2020/12/14 06:16:46;;;;;;;22.38;14.00;;;;;;;;;;5072534;28;20023;-82
2020/12/14 06:19:14;;;;;;;24.08;14.10;;;;;;;;;;5072521;28;20104;-83
2020/12/14 06:21:43;;;;;;;20.85;13.18;;;;;;;;;;5072472;28;20107;-83
2020/12/14 06:24:16;;;;;;;23.00;14.38;;;;;;;;;;5072708;28;20480;-82
2020/12/14 06:26:44;;;;;;;21.08;13.80;;;;;;;;;;5072257;28;20044;-84
2020/12/14 06:29:10;;;;;;;20.45;12.57;;;;;;;;;;5072706;28;20085;-79
2020/12/14 06:31:37;;;;;;;21.52;13.00;;;;;;;;;;5072609;28;20028;-81
2020/12/14 06:34:23;;;;;;;19.15;12.13;;;;;;;;;;5072220;28;20086;-78
2020/12/14 06:36:49;;;;;;;20.95;13.02;;;;;;;;;;5072265;28;20032;-83
2020/12/14 06:39:24;;;;;;;49.47;23.00;;;;;;;;;;5072283;28;20070;-81
2020/12/14 06:41:51;;;;;;;31.65;17.00;;;;;;;;;;5072096;28;20036;-82
2020/12/14 06:44:17;;;;;;;29.40;15.90;;;;;;;;;;5072253;28;20056;-78
2020/12/14 06:46:44;;;;;;;27.30;14.88;;;;;;;;;;5072087;28;20111;-82
2020/12/14 06:49:11;;;;;;;44.22;21.83;;;;;;;;;;5072011;28;20023;-74
2020/12/14 06:51:50;;;;;;;41.08;20.83;;;;;;;;;;5072323;28;20021;-81
2020/12/14 06:54:35;;;;;;;27.52;15.40;;;;;;;;;;5071981;28;20116;-77
2020/12/14 06:57:03;;;;;;;22.25;12.38;;;;;;;;;;5071931;28;20017;-77
2020/12/14 06:59:29;;;;;;;15.93;9.90;;;;;;;;;;5072408;28;20405;-76
2020/12/14 07:01:57;;;;;;;15.63;9.35;;;;;;;;;;5072192;28;20357;-83
2020/12/14 07:04:29;;;;;;;14.70;8.80;;;;;;;;;;5072092;28;20025;-82
2020/12/14 07:07:18;;;;;;;14.32;8.38;;;;;;;;;;5071918;28;20028;-82
2020/12/14 07:09:44;;;;;;;10.95;6.63;;;;;;;;;;5071753;28;20058;-79
2020/12/14 07:12:10;;;;;;;11.55;7.53;;;;;;;;;;5072431;28;20028;-82
2020/12/14 07:14:44;;;;;;;10.88;6.38;;;;;;;;;;5075360;28;20043;-83
2020/12/14 07:17:20;;;;;;;11.40;6.75;;;;;;;;;;5075892;28;20487;-78
2020/12/14 07:19:46;;;;;;;10.65;6.28;;;;;;;;;;5075627;28;20103;-79
2020/12/14 07:22:19;;;;;;;8.82;5.63;;;;;;;;;;5075667;28;20024;-85
2020/12/14 07:24:50;;;;;;;8.68;5.63;;;;;;;;;;5075721;28;20028;-84
2020/12/14 07:27:16;;;;;;;9.98;5.90;;;;;;;;;;5075906;28;20029;-79
2020/12/14 07:29:42;;;;;;;10.23;6.05;;;;;;;;;;5075687;28;20024;-81
2020/12/14 07:32:08;;;;;;;8.38;4.93;;;;;;;;;;5075722;28;20025;-79
2020/12/14 07:34:34;;;;;;;10.25;5.50;;;;;;;;;;5075574;28;20047;-86
2020/12/14 07:37:01;;;;;;;7.82;5.57;;;;;;;;;;5075601;28;20111;-83
2020/12/14 07:39:27;;;;;;;7.43;4.78;;;;;;;;;;5075469;28;20021;-81
2020/12/14 07:41:53;;;;;;;8.85;5.15;;;;;;;;;;5075291;28;20023;-85
2020/12/14 07:44:19;;;;;;;7.00;4.72;;;;;;;;;;5075288;28;20035;-82
2020/12/14 07:46:45;;;;;;;6.65;4.68;;;;;;;;;;5075145;28;20028;-87
2020/12/14 07:49:12;;;;;;;8.05;5.10;;;;;;;;;;5075261;28;20024;-82
2020/12/14 07:51:45;;;;;;;7.30;5.22;;;;;;;;;;5075351;28;20086;-80
2020/12/14 07:54:15;;;;;;;9.25;6.07;;;;;;;;;;5074980;28;20361;-80
2020/12/14 07:56:46;;;;;;;7.75;5.32;;;;;;;;;;5075983;28;20048;-81
2020/12/14 07:59:19;;;;;;;7.32;5.38;;;;;;;;;;5074272;28;20484;-85
2020/12/14 08:01:46;;;;;;;6.70;4.65;;;;;;;;;;5075065;28;20078;-88
2020/12/14 08:04:12;;;;;;;7.93;5.18;;;;;;;;;;5075371;28;20025;-85
2020/12/14 08:06:39;;;;;;;9.32;5.97;;;;;;;;;;5075445;28;20029;-82
2020/12/14 08:09:05;;;;;;;8.60;5.15;;;;;;;;;;5075253;28;20032;-87
2020/12/14 08:11:32;;;;;;;8.25;5.32;;;;;;;;;;5075240;28;20606;-83
2020/12/14 08:13:58;;;;;;;7.40;5.32;;;;;;;;;;5074952;28;20036;-87
2020/12/14 08:16:24;;;;;;;7.47;4.90;;;;;;;;;;5074621;28;20059;-84
2020/12/14 08:18:56;;;;;;;8.40;5.10;;;;;;;;;;5074978;28;20476;-88
2020/12/14 08:21:23;;;;;;;8.18;5.20;;;;;;;;;;5075191;28;20020;-84
2020/12/14 08:23:49;;;;;;;7.47;4.93;;;;;;;;;;5074900;28;20017;-82
2020/12/14 08:26:20;;;;;;;8.80;5.28;;;;;;;;;;5073755;28;20131;-87
2020/12/14 08:28:46;;;;;;;6.10;3.97;;;;;;;;;;5074654;28;20047;-82
2020/12/14 08:31:12;;;;;;;7.22;4.28;;;;;;;;;;5074805;28;20555;-89
2020/12/14 08:33:52;;;;;;;8.20;5.10;;;;;;;;;;5074788;28;20430;-85
2020/12/14 08:36:18;;;;;;;9.00;5.80;;;;;;;;;;5056954;28;20099;-87
2020/12/14 08:38:44;;;;;;;7.97;4.82;;;;;;;;;;5074445;28;20025;-87
2020/12/14 08:41:12;;;;;;;7.88;5.68;;;;;;;;;;5074497;28;20025;-81
2020/12/14 08:43:38;;;;;;;8.40;5.40;;;;;;;;;;5074309;28;20020;-84
2020/12/14 08:46:05;;;;;;;6.88;4.60;;;;;;;;;;5073746;28;20024;-86
2020/12/14 08:48:32;;;;;;;7.60;4.97;;;;;;;;;;5074322;28;20052;-85
2020/12/14 08:51:07;;;;;;;8.27;5.10;;;;;;;;;;5074158;28;20025;-86
2020/12/14 08:53:34;;;;;;;9.52;5.47;;;;;;;;;;5073897;28;20064;-86
2020/12/14 08:56:05;;;;;;;7.20;5.00;;;;;;;;;;5073676;28;20098;-86
2020/12/14 08:58:31;;;;;;;9.30;5.65;;;;;;;;;;5074146;28;20048;-85
2020/12/14 09:01:08;;;;;;;9.60;4.57;;;;;;;;;;5073741;28;20067;-86
2020/12/14 09:03:44;;;;;;;7.03;5.13;;;;;;;;;;5073887;28;20024;-85
2020/12/14 09:06:22;;;;;;;7.43;4.20;;;;;;;;;;5073679;28;20028;-75
2020/12/14 09:08:58;;;;;;;7.72;5.22;;;;;;;;;;5073647;28;20488;-83
2020/12/14 09:11:28;;;;;;;8.32;5.47;;;;;;;;;;5073604;28;20024;-85
2020/12/14 09:13:54;;;;;;;5.82;3.95;;;;;;;;;;5073974;28;20086;-82
2020/12/14 09:16:20;;;;;;;8.27;5.55;;;;;;;;;;5073414;28;20032;-84
2020/12/14 09:18:46;;;;;;;8.27;5.65;;;;;;;;;;5073503;28;20024;-86
2020/12/14 09:21:12;;;;;;;8.27;4.82;;;;;;;;;;5073515;28;20418;-81
2020/12/14 09:23:38;;;;;;;9.88;6.07;;;;;;;;;;5073564;28;20048;-84
2020/12/14 09:26:05;;;;;;;8.13;5.47;;;;;;;;;;5073056;28;20127;-82
2020/12/14 09:28:34;;;;;;;7.72;5.20;;;;;;;;;;5073345;28;20024;-80
2020/12/14 09:31:00;;;;;;;11.98;5.47;;;;;;;;;;5073362;28;20113;-79
2020/12/14 09:33:26;;;;;;;7.85;5.32;;;;;;;;;;5072986;28;20056;-82
2020/12/14 09:35:52;;;;;;;8.27;5.43;;;;;;;;;;5072775;28;20036;-83
2020/12/14 09:38:19;;;;;;;4.95;3.53;;;;;;;;;;5073147;28;20040;-79
2020/12/14 09:40:51;;;;;;;8.65;5.55;;;;;;;;;;5073100;28;20031;-83
2020/12/14 09:43:17;;;;;;;8.15;5.40;;;;;;;;;;5072987;28;20142;-80
2020/12/14 09:45:43;;;;;;;8.82;5.57;;;;;;;;;;5072852;28;20024;-78
2020/12/14 09:48:09;;;;;;;7.95;5.75;;;;;;;;;;5073058;28;20035;-79
2020/12/14 09:50:35;;;;;;;7.22;5.03;;;;;;;;;;5073154;28;20063;-80
2020/12/14 09:53:01;;;;;;;8.90;6.18;;;;;;;;;;5072610;28;20019;-78
2020/12/14 09:55:27;;;;;;;9.05;5.55;;;;;;;;;;5072868;28;20028;-88
2020/12/14 09:57:53;;;;;;;9.23;5.53;;;;;;;;;;5072765;28;20081;-82
2020/12/14 10:00:19;;;;;;;8.27;5.25;;;;;;;;;;5072664;28;20024;-80
2020/12/14 10:02:45;;;;;;;11.23;6.07;;;;;;;;;;5072779;28;20020;-82
2020/12/14 10:05:11;;;;;;;10.02;5.93;;;;;;;;;;5072559;28;20020;-80
2020/12/14 10:07:41;;;;;;;8.68;5.55;;;;;;;;;;5072735;28;20020;-81
2020/12/14 10:10:07;;;;;;;8.95;5.63;;;;;;;;;;5072304;28;20028;-83
2020/12/14 10:12:33;;;;;;;8.85;5.72;;;;;;;;;;5072785;28;20031;-80
2020/12/14 10:14:59;;;;;;;8.40;5.75;;;;;;;;;;5072648;28;20466;-77
2020/12/14 10:17:25;;;;;;;8.18;5.93;;;;;;;;;;5072530;28;20023;-84
2020/12/14 10:19:54;;;;;;;11.30;5.75;;;;;;;;;;5072342;28;20105;-85
2020/12/14 10:22:20;;;;;;;7.72;5.03;;;;;;;;;;5072628;28;20043;-82
2020/12/14 10:24:46;;;;;;;7.50;4.75;;;;;;;;;;5072351;28;20029;-81
2020/12/14 10:27:13;;;;;;;8.23;4.70;;;;;;;;;;5072244;28;20115;-79
2020/12/14 10:29:39;;;;;;;8.23;5.22;;;;;;;;;;5072786;28;20039;-80
2020/12/14 10:32:05;;;;;;;8.00;5.68;;;;;;;;;;5072428;28;20017;-83
2020/12/14 10:34:31;;;;;;;10.18;5.50;;;;;;;;;;5072451;28;20040;-82
2020/12/14 10:36:57;;;;;;;7.18;4.70;;;;;;;;;;5072208;28;20020;-82
2020/12/14 10:39:23;;;;;;;7.75;4.78;;;;;;;;;;5072255;28;20428;-85
2020/12/14 10:41:52;;;;;;;9.60;4.72;;;;;;;;;;5072128;28;20035;-88
2020/12/14 10:44:18;;;;;;;7.50;4.93;;;;;;;;;;5072395;28;20028;-79
2020/12/14 10:46:44;;;;;;;7.45;4.57;;;;;;;;;;5072104;28;20036;-82
2020/12/14 10:49:10;;;;;;;6.35;4.22;;;;;;;;;;5074854;28;20024;-82
2020/12/14 10:51:37;;;;;;;6.60;4.82;;;;;;;;;;5076350;28;20028;-80
2020/12/14 10:54:03;;;;;;;7.97;5.55;;;;;;;;;;5076078;28;20135;-85
2020/12/14 10:56:29;;;;;;;8.02;5.97;;;;;;;;;;5076099;28;20017;-85
2020/12/14 10:58:56;;;;;;;7.22;5.07;;;;;;;;;;5076246;28;20016;-81
2020/12/14 11:01:22;;;;;;;7.88;5.55;;;;;;;;;;5076119;28;20071;-84
2020/12/14 11:03:48;;;;;;;7.00;4.57;;;;;;;;;;5058019;28;20384;-78
2020/12/14 11:06:14;;;;;;;7.68;4.75;;;;;;;;;;5075825;28;20408;-82
2020/12/14 11:08:40;;;;;;;7.68;4.80;;;;;;;;;;5075900;28;20472;-76
2020/12/14 11:11:07;;;;;;;7.70;5.10;;;;;;;;;;5076102;28;20499;-81
2020/12/14 11:13:33;;;;;;;6.55;4.80;;;;;;;;;;5075967;28;20096;-78
2020/12/14 11:16:00;;;;;;;7.88;5.32;;;;;;;;;;5075265;28;20055;-87
2020/12/14 11:18:26;;;;;;;6.35;4.47;;;;;;;;;;5075605;28;20017;-87
2020/12/14 11:20:52;;;;;;;7.53;4.63;;;;;;;;;;5075591;28;20154;-86
2020/12/14 11:23:18;;;;;;;5.95;3.92;;;;;;;;;;5076033;28;20052;-87
2020/12/14 11:25:44;;;;;;;7.43;4.75;;;;;;;;;;5074936;28;20060;-87
2020/12/14 11:28:10;;;;;;;6.45;4.00;;;;;;;;;;5075129;28;20025;-85
2020/12/14 11:30:36;;;;;;;7.78;4.97;;;;;;;;;;5075560;28;20028;-87
2020/12/14 11:33:02;;;;;;;5.55;4.03;;;;;;;;;;5075614;28;20024;-86
2020/12/14 11:35:29;;;;;;;5.93;4.20;;;;;;;;;;5074719;28;20093;-86
2020/12/14 11:37:55;;;;;;;9.65;4.47;;;;;;;;;;5075128;28;20038;-85
2020/12/14 11:40:21;;;;;;;8.70;4.22;;;;;;;;;;5075458;28;20418;-85
2020/12/14 11:42:47;;;;;;;7.63;3.88;;;;;;;;;;5075266;28;20031;-86
2020/12/14 11:45:13;;;;;;;6.55;4.50;;;;;;;;;;5075414;28;20021;-86
2020/12/14 11:47:40;;;;;;;7.80;4.30;;;;;;;;;;5075252;28;20209;-81
2020/12/14 11:50:06;;;;;;;6.80;4.70;;;;;;;;;;5075228;28;20414;-86
2020/12/14 11:52:32;;;;;;;6.55;4.28;;;;;;;;;;5074951;28;20024;-85
2020/12/14 11:54:59;;;;;;;6.78;4.13;;;;;;;;;;5074739;28;20065;-84
2020/12/14 11:57:25;;;;;;;3.65;2.30;;;;;;;;;;5075212;28;20464;-83
2020/12/14 11:59:51;;;;;;;5.43;4.07;;;;;;;;;;5036897;28;20431;-86
2020/12/14 12:02:18;;;;;;;7.78;4.53;;;;;;;;;;5055082;28;20384;-87
2020/12/14 12:04:44;;;;;;;6.45;3.70;;;;;;;;;;5036935;28;20380;-84
2020/12/14 12:07:10;;;;;;;5.88;3.70;;;;;;;;;;5054644;28;20028;-85
2020/12/14 12:09:37;;;;;;;5.78;3.33;;;;;;;;;;5054966;28;20021;-83
2020/12/14 12:12:03;;;;;;;10.38;4.35;;;;;;;;;;5054686;28;20100;-86
2020/12/14 12:14:29;;;;;;;5.90;3.70;;;;;;;;;;5054708;28;20044;-86
2020/12/14 12:16:55;;;;;;;7.78;4.78;;;;;;;;;;5054843;28;20119;-86
2020/12/14 12:19:21;;;;;;;7.53;4.47;;;;;;;;;;5054687;28;20025;-87
2020/12/14 12:21:48;;;;;;;14.80;4.30;;;;;;;;;;5058873;28;20096;-86
2020/12/14 12:24:15;;;;;;;8.85;5.40;;;;;;;;;;5074721;28;20114;-89
2020/12/14 12:26:41;;;;;;;8.18;4.50;;;;;;;;;;5074297;28;20381;-86
2020/12/14 12:29:07;;;;;;;7.05;4.50;;;;;;;;;;5074437;28;20048;-87
2020/12/14 12:31:33;;;;;;;6.90;4.35;;;;;;;;;;5074479;28;20025;-86
2020/12/14 12:33:59;;;;;;;6.25;3.83;;;;;;;;;;5074271;28;20028;-88
2020/12/14 12:36:25;;;;;;;7.15;4.43;;;;;;;;;;5074375;28;20074;-87
2020/12/14 12:38:51;;;;;;;6.15;3.90;;;;;;;;;;5074252;28;20025;-86
2020/12/14 12:41:17;;;;;;;6.13;4.10;;;;;;;;;;5074319;28;20023;-87
2020/12/14 12:43:43;;;;;;;11.82;4.38;;;;;;;;;;5074024;28;20046;-82
2020/12/14 12:46:09;;;;;;;8.40;3.90;;;;;;;;;;5074222;28;20028;-74
2020/12/14 12:48:35;;;;;;;6.85;4.40;;;;;;;;;;5074154;28;20021;-86
2020/12/14 12:51:03;;;;;;;9.38;4.88;;;;;;;;;;5073886;28;20028;-87
2020/12/14 12:53:30;;;;;;;7.93;4.90;;;;;;;;;;5073679;28;20059;-83
2020/12/14 12:55:56;;;;;;;6.95;4.00;;;;;;;;;;5073792;28;20032;-87
2020/12/14 12:58:22;;;;;;;7.68;4.03;;;;;;;;;;5073944;28;20070;-87
2020/12/14 13:00:48;;;;;;;7.65;4.10;;;;;;;;;;5073748;28;20491;-87
2020/12/14 13:03:14;;;;;;;7.43;4.22;;;;;;;;;;5073609;28;20016;-86
2020/12/14 13:05:41;;;;;;;7.75;4.40;;;;;;;;;;5074024;28;20029;-87
2020/12/14 13:08:07;;;;;;;7.72;4.22;;;;;;;;;;5073602;28;20049;-87
2020/12/14 13:10:34;;;;;;;6.45;3.85;;;;;;;;;;5073311;28;20373;-87
2020/12/14 13:13:00;;;;;;;7.25;4.40;;;;;;;;;;5073481;28;20016;-86
2020/12/14 13:15:26;;;;;;;7.22;4.57;;;;;;;;;;5073385;28;20032;-81
2020/12/14 13:17:52;;;;;;;9.88;4.60;;;;;;;;;;5073290;28;20013;-83
2020/12/14 13:20:18;;;;;;;6.88;4.72;;;;;;;;;;5073391;28;20021;-86
2020/12/14 13:22:44;;;;;;;7.22;4.65;;;;;;;;;;5073375;28;20039;-84
2020/12/14 13:25:10;;;;;;;8.93;4.80;;;;;;;;;;5073093;28;20480;-84
2020/12/14 13:27:36;;;;;;;9.00;4.47;;;;;;;;;;5073648;28;20036;-86
2020/12/14 13:30:03;;;;;;;6.90;4.68;;;;;;;;;;5073260;28;20056;-86
2020/12/14 13:32:29;;;;;;;6.70;4.45;;;;;;;;;;5073042;28;20028;-83
2020/12/14 13:34:55;;;;;;;9.75;4.60;;;;;;;;;;5073035;28;20029;-85
2020/12/14 13:37:22;;;;;;;7.55;4.90;;;;;;;;;;5073167;28;20051;-86
2020/12/14 13:39:48;;;;;;;9.43;4.88;;;;;;;;;;5055226;28;20056;-84
2020/12/14 13:42:14;;;;;;;8.23;4.85;;;;;;;;;;5073143;28;20096;-86
2020/12/14 13:44:40;;;;;;;9.13;6.07;;;;;;;;;;5073002;28;20031;-81
2020/12/14 13:47:06;;;;;;;10.52;5.97;;;;;;;;;;5073037;28;20021;-86
2020/12/14 13:49:32;;;;;;;10.68;5.50;;;;;;;;;;5072830;28;20031;-86
2020/12/14 13:51:58;;;;;;;8.93;4.88;;;;;;;;;;5072755;28;20051;-83
2020/12/14 13:54:25;;;;;;;9.27;5.07;;;;;;;;;;5072642;28;20037;-82
2020/12/14 13:56:51;;;;;;;8.70;4.68;;;;;;;;;;5072811;28;20044;-81
2020/12/14 13:59:17;;;;;;;9.57;5.50;;;;;;;;;;5072845;28;20031;-86
2020/12/14 14:01:48;;;;;;;13.10;6.32;;;;;;;;;;5072637;28;20107;-82
2020/12/14 14:04:14;;;;;;;12.38;5.75;;;;;;;;;;5072811;28;20025;-86
2020/12/14 14:06:40;;;;;;;13.02;6.25;;;;;;;;;;5072673;28;20028;-85
2020/12/14 14:09:06;;;;;;;10.80;5.00;;;;;;;;;;5072952;28;20029;-86
2020/12/14 14:11:32;;;;;;;12.98;6.50;;;;;;;;;;5072607;28;20495;-87
2020/12/14 14:13:58;;;;;;;15.73;5.78;;;;;;;;;;5072498;28;20112;-86
2020/12/14 14:16:24;;;;;;;10.45;6.15;;;;;;;;;;5072493;28;20024;-84
2020/12/14 14:18:50;;;;;;;8.48;5.55;;;;;;;;;;5072481;28;20029;-86
2020/12/14 14:21:16;;;;;;;8.30;5.30;;;;;;;;;;5072273;28;20082;-86
2020/12/14 14:23:42;;;;;;;7.13;4.57;;;;;;;;;;5071650;28;20025;-86
2020/12/14 14:26:10;;;;;;;11.57;5.22;;;;;;;;;;5072352;28;20135;-86
2020/12/14 14:28:36;;;;;;;11.10;5.10;;;;;;;;;;5072543;28;20021;-86
2020/12/14 14:31:02;;;;;;;11.35;5.78;;;;;;;;;;5072425;28;20403;-87
2020/12/14 14:33:28;;;;;;;8.32;5.25;;;;;;;;;;5072061;28;20473;-86
2020/12/14 14:35:54;;;;;;;9.80;4.97;;;;;;;;;;5072642;28;20380;-83